^^
Saratoga-Weather Station Historical Data
Daily Summary for February 2, 2021 Units:  Both    English   Metric
Daily Weekly Monthly Yearly Custom
  High: Low: Average:
Temperature: 42.6 °F /  5.9 °C 36.1 °F /  2.3 °C 39.7 °F /  4.3 °C
Dew Point: 40.8 °F /  4.9 °C 32.9 °F /  0.5 °C 36.7 °F /  2.6 °C
Humidity: 94% 81% 89%
Wind Speed: 14.1mph /  22.7km/h - 4.8mph /  7.8km/h
Wind Gust: 16mph /  25.7km/h - -
Wind- - West
Pressure: 29.8 in /  1007.8 hPa 29.5 in /  999.7 hPa -
Precipitation: 0.03 in /  0.8 mm    
Historical Graphs
 
 
Tabular Data for February 2, 2021
Time Temperature Dew Point Pressure Wind Wind Speed Wind Gust Humidity Rainfall Rate (Hourly) solar
00:00 42.3 °F /  5.7 °C 40.6 °F /  4.8 °C 29.5in /  999.7hPa West 2.9mph /  4.7km/h 5mph /  8km/h 94% 0in /  0.0mm 0 W/m2
00:05 42.4 °F /  5.8 °C 40.6 °F /  4.8 °C 29.5in /  999.7hPa West 2.9mph /  4.7km/h 8mph /  12.9km/h 93% 0in /  0.0mm 0 W/m2
00:10 42.4 °F /  5.8 °C 40.6 °F /  4.8 °C 29.5in /  999.7hPa West 2mph /  3.2km/h 5mph /  8km/h 93% 0in /  0.0mm 0 W/m2
00:15 42.4 °F /  5.8 °C 40.6 °F /  4.8 °C 29.5in /  999.7hPa West 2.9mph /  4.7km/h 4mph /  6.4km/h 93% 0in /  0.0mm 0 W/m2
00:20 42.4 °F /  5.8 °C 40.6 °F /  4.8 °C 29.5in /  999.7hPa WSW 0.9mph /  1.4km/h 5mph /  8km/h 93% 0in /  0.0mm 0 W/m2
00:25 42.4 °F /  5.8 °C 40.6 °F /  4.8 °C 29.5in /  1000.0hPa WNW 2mph /  3.2km/h 9mph /  14.5km/h 93% 0in /  0.0mm 0 W/m2
00:30 42.4 °F /  5.8 °C 40.6 °F /  4.8 °C 29.5in /  1000.0hPa SW 4.9mph /  7.9km/h 7mph /  11.3km/h 93% 0in /  0.0mm 0 W/m2
00:35 42.4 °F /  5.8 °C 40.6 °F /  4.8 °C 29.5in /  1000.0hPa West 4mph /  6.4km/h 8mph /  12.9km/h 93% 0in /  0.0mm 0 W/m2
00:40 42.4 °F /  5.8 °C 40.6 °F /  4.8 °C 29.5in /  1000.0hPa WSW 2.9mph /  4.7km/h 5mph /  8km/h 93% 0in /  0.0mm 0 W/m2
00:45 42.4 °F /  5.8 °C 40.6 °F /  4.8 °C 29.5in /  1000.0hPa WNW 2mph /  3.2km/h 3mph /  4.8km/h 93% 0in /  0.0mm 0 W/m2
00:50 42.6 °F /  5.9 °C 40.8 °F /  4.9 °C 29.5in /  1000.0hPa West 4mph /  6.4km/h 8mph /  12.9km/h 93% 0in /  0.0mm 0 W/m2
00:55 42.4 °F /  5.8 °C 40.6 °F /  4.8 °C 29.5in /  1000.0hPa SW 6mph /  9.7km/h 6mph /  9.7km/h 93% 0in /  0.0mm 0 W/m2
01:00 42.6 °F /  5.9 °C 40.8 °F /  4.9 °C 29.5in /  1000.0hPa WSW 8mph /  12.9km/h 8mph /  12.9km/h 93% 0in /  0.0mm 0 W/m2
01:05 42.6 °F /  5.9 °C 40.8 °F /  4.9 °C 29.5in /  1000.0hPa West 6mph /  9.7km/h 7mph /  11.3km/h 93% 0in /  0.0mm 0 W/m2
01:10 42.6 °F /  5.9 °C 40.8 °F /  4.9 °C 29.5in /  999.7hPa NW 2.9mph /  4.7km/h 3mph /  4.8km/h 93% 0in /  0.0mm 0 W/m2
01:15 42.4 °F /  5.8 °C 40.6 °F /  4.8 °C 29.5in /  1000.0hPa WSW 2.9mph /  4.7km/h 9mph /  14.5km/h 93% 0in /  0.0mm 0 W/m2
01:20 42.4 °F /  5.8 °C 40.6 °F /  4.8 °C 29.5in /  1000.0hPa NW 2mph /  3.2km/h 3mph /  4.8km/h 93% 0in /  0.0mm 0 W/m2
01:25 42.4 °F /  5.8 °C 40.6 °F /  4.8 °C 29.5in /  999.7hPa WNW 6.9mph /  11.1km/h 9mph /  14.5km/h 93% 0in /  0.0mm 0 W/m2
01:30 42.4 °F /  5.8 °C 40.6 °F /  4.8 °C 29.5in /  1000.0hPa West 2mph /  3.2km/h 4mph /  6.4km/h 93% 0in /  0.0mm 0 W/m2
01:35 42.4 °F /  5.8 °C 40.6 °F /  4.8 °C 29.5in /  1000.0hPa West 2.9mph /  4.7km/h 6mph /  9.7km/h 93% 0in /  0.0mm 0 W/m2
01:40 42.4 °F /  5.8 °C 40.6 °F /  4.8 °C 29.5in /  1000.0hPa West 2.9mph /  4.7km/h 11mph /  17.7km/h 93% 0in /  0.0mm 0 W/m2
01:45 42.4 °F /  5.8 °C 40.6 °F /  4.8 °C 29.5in /  1000.0hPa WSW 2.9mph /  4.7km/h 5mph /  8km/h 93% 0in /  0.0mm 0 W/m2
01:50 42.4 °F /  5.8 °C 40.6 °F /  4.8 °C 29.5in /  1000.0hPa WNW 2mph /  3.2km/h 9mph /  14.5km/h 93% 0in /  0.0mm 0 W/m2
01:55 42.4 °F /  5.8 °C 40.6 °F /  4.8 °C 29.5in /  1000.0hPa WSW 4mph /  6.4km/h 10mph /  16.1km/h 93% 0in /  0.0mm 0 W/m2
02:00 42.4 °F /  5.8 °C 40.6 °F /  4.8 °C 29.5in /  1000.0hPa West 2.9mph /  4.7km/h 4mph /  6.4km/h 93% 0in /  0.0mm 0 W/m2
02:05 42.4 °F /  5.8 °C 40.6 °F /  4.8 °C 29.5in /  1000.0hPa WSW 2mph /  3.2km/h 10mph /  16.1km/h 93% 0in /  0.0mm 0 W/m2
02:10 42.4 °F /  5.8 °C 40.6 °F /  4.8 °C 29.5in /  1000.0hPa West 2.9mph /  4.7km/h 7mph /  11.3km/h 93% 0in /  0.0mm 0 W/m2
02:15 42.3 °F /  5.7 °C 40.5 °F /  4.7 °C 29.5in /  1000.0hPa West 12mph /  19.3km/h 12mph /  19.3km/h 93% 0in /  0.0mm 0 W/m2
02:20 42.3 °F /  5.7 °C 40.5 °F /  4.7 °C 29.5in /  1000.0hPa West 0.9mph /  1.4km/h 8mph /  12.9km/h 93% 0in /  0.0mm 0 W/m2
02:25 42.3 °F /  5.7 °C 40.5 °F /  4.7 °C 29.5in /  999.7hPa West 2.9mph /  4.7km/h 6mph /  9.7km/h 93% 0in /  0.0mm 0 W/m2
02:30 42.3 °F /  5.7 °C 40.5 °F /  4.7 °C 29.5in /  1000.0hPa West 2.9mph /  4.7km/h 7mph /  11.3km/h 93% 0in /  0.0mm 0 W/m2
02:35 42.3 °F /  5.7 °C 40.5 °F /  4.7 °C 29.5in /  1000.0hPa SW 4mph /  6.4km/h 4mph /  6.4km/h 93% 0in /  0.0mm 0 W/m2
02:40 42.3 °F /  5.7 °C 40.5 °F /  4.7 °C 29.5in /  999.7hPa WNW 4mph /  6.4km/h 10mph /  16.1km/h 93% 0in /  0.0mm 0 W/m2
02:45 42.1 °F /  5.6 °C 40.3 °F /  4.6 °C 29.5in /  999.7hPa West 0.9mph /  1.4km/h 4mph /  6.4km/h 93% 0in /  0.0mm 0 W/m2
02:50 42.3 °F /  5.7 °C 40.5 °F /  4.7 °C 29.5in /  999.7hPa North 2mph /  3.2km/h 10mph /  16.1km/h 93% 0in /  0.0mm 0 W/m2
02:55 42.1 °F /  5.6 °C 40.3 °F /  4.6 °C 29.5in /  1000.0hPa WNW 4mph /  6.4km/h 4mph /  6.4km/h 93% 0in /  0.0mm 0 W/m2
03:00 42.1 °F /  5.6 °C 40.3 °F /  4.6 °C 29.5in /  1000.0hPa WSW 6mph /  9.7km/h 9mph /  14.5km/h 93% 0in /  0.0mm 0 W/m2
03:05 42.1 °F /  5.6 °C 40.3 °F /  4.6 °C 29.5in /  1000.0hPa West 6mph /  9.7km/h 9mph /  14.5km/h 93% 0in /  0.0mm 0 W/m2
03:10 42.1 °F /  5.6 °C 39.9 °F /  4.4 °C 29.5in /  1000.0hPa WSW 8.1mph /  13km/h 9mph /  14.5km/h 92% 0in /  0.0mm 0 W/m2
03:15 42.1 °F /  5.6 °C 39.9 °F /  4.4 °C 29.5in /  1000.0hPa WNW 2.9mph /  4.7km/h 12mph /  19.3km/h 92% 0in /  0.0mm 0 W/m2
03:20 42.3 °F /  5.7 °C 40.1 °F /  4.5 °C 29.5in /  1000.0hPa NW 2.9mph /  4.7km/h 4mph /  6.4km/h 92% 0in /  0.0mm 0 W/m2
03:25 42.3 °F /  5.7 °C 40.1 °F /  4.5 °C 29.5in /  1000.0hPa WNW 2.9mph /  4.7km/h 12mph /  19.3km/h 92% 0in /  0.0mm 0 W/m2
03:30 42.3 °F /  5.7 °C 40.1 °F /  4.5 °C 29.5in /  1000.0hPa WSW 4mph /  6.4km/h 7mph /  11.3km/h 92% 0in /  0.0mm 0 W/m2
03:35 42.3 °F /  5.7 °C 40.1 °F /  4.5 °C 29.5in /  1000.0hPa West 6mph /  9.7km/h 10mph /  16.1km/h 92% 0in /  0.0mm 0 W/m2
03:40 42.1 °F /  5.6 °C 39.9 °F /  4.4 °C 29.5in /  999.7hPa WSW 4.9mph /  7.9km/h 12mph /  19.3km/h 92% 0in /  0.0mm 0 W/m2
03:45 42.1 °F /  5.6 °C 39.9 °F /  4.4 °C 29.5in /  999.7hPa WNW 2.9mph /  4.7km/h 13mph /  20.9km/h 92% 0in /  0.0mm 0 W/m2
03:50 41.9 °F /  5.5 °C 39.7 °F /  4.3 °C 29.5in /  999.7hPa West 2.9mph /  4.7km/h 6mph /  9.7km/h 92% 0in /  0.0mm 0 W/m2
03:55 41.7 °F /  5.4 °C 39.6 °F /  4.2 °C 29.5in /  999.7hPa NW 4.9mph /  7.9km/h 13mph /  20.9km/h 92% 0in /  0.0mm 0 W/m2
04:01 41.7 °F /  5.4 °C 39.6 °F /  4.2 °C 29.5in /  999.7hPa West 6mph /  9.7km/h 8mph /  12.9km/h 92% 0in /  0.0mm 0 W/m2
04:06 41.7 °F /  5.4 °C 39.6 °F /  4.2 °C 29.5in /  1000.0hPa WNW 8.9mph /  14.3km/h 9mph /  14.5km/h 92% 0in /  0.0mm 0 W/m2
04:11 41.5 °F /  5.3 °C 39.4 °F /  4.1 °C 29.5in /  1000.0hPa WSW 2.9mph /  4.7km/h 3mph /  4.8km/h 92% 0in /  0.0mm 0 W/m2
04:16 41.5 °F /  5.3 °C 39.4 °F /  4.1 °C 29.5in /  999.7hPa West 4mph /  6.4km/h 7mph /  11.3km/h 92% 0in /  0.0mm 0 W/m2
04:21 41.5 °F /  5.3 °C 39.4 °F /  4.1 °C 29.5in /  999.7hPa West 4mph /  6.4km/h 9mph /  14.5km/h 92% 0in /  0.0mm 0 W/m2
04:26 41.5 °F /  5.3 °C 39.4 °F /  4.1 °C 29.5in /  1000.0hPa WSW 0.9mph /  1.4km/h 11mph /  17.7km/h 92% 0in /  0.0mm 0 W/m2
04:31 41.5 °F /  5.3 °C 39.2 °F /  4 °C 29.5in /  1000.0hPa West 4mph /  6.4km/h 6mph /  9.7km/h 91% 0in /  0.0mm 0 W/m2
04:36 41.5 °F /  5.3 °C 39.2 °F /  4 °C 29.5in /  1000.0hPa West 0.9mph /  1.4km/h 9mph /  14.5km/h 91% 0in /  0.0mm 0 W/m2
04:41 41.5 °F /  5.3 °C 39.2 °F /  4 °C 29.5in /  1000.0hPa WSW 2.9mph /  4.7km/h 5mph /  8km/h 91% 0in /  0.0mm 0 W/m2
04:46 41.5 °F /  5.3 °C 39.2 °F /  4 °C 29.5in /  1000.0hPa WNW 2mph /  3.2km/h 8mph /  12.9km/h 91% 0in /  0.0mm 0 W/m2
04:51 41.4 °F /  5.2 °C 39.2 °F /  4 °C 29.5in /  1000.0hPa West 4mph /  6.4km/h 4mph /  6.4km/h 92% 0in /  0.0mm 0 W/m2
04:56 41.4 °F /  5.2 °C 39.2 °F /  4 °C 29.5in /  1000.0hPa WNW 0.9mph /  1.4km/h 8mph /  12.9km/h 92% 0in /  0.0mm 0 W/m2
05:01 41.4 °F /  5.2 °C 39.2 °F /  4 °C 29.5in /  1000.0hPa NW 0.9mph /  1.4km/h 4mph /  6.4km/h 92% 0in /  0.0mm 0 W/m2
05:06 41.4 °F /  5.2 °C 39.2 °F /  4 °C 29.5in /  1000.0hPa West 6mph /  9.7km/h 6mph /  9.7km/h 92% 0in /  0.0mm 0 W/m2
05:11 41.2 °F /  5.1 °C 39 °F /  3.9 °C 29.5in /  1000.0hPa WSW 8.9mph /  14.3km/h 9mph /  14.5km/h 92% 0in /  0.0mm 0 W/m2
05:16 41.2 °F /  5.1 °C 39.4 °F /  4.1 °C 29.5in /  1000.0hPa West 2.9mph /  4.7km/h 4mph /  6.4km/h 93% 0in /  0.0mm 0 W/m2
05:21 41.2 °F /  5.1 °C 39.4 °F /  4.1 °C 29.5in /  999.7hPa WSW 2mph /  3.2km/h 6mph /  9.7km/h 93% 0in /  0.0mm 0 W/m2
05:26 41.2 °F /  5.1 °C 39.4 °F /  4.1 °C 29.5in /  1000.0hPa West 2mph /  3.2km/h 10mph /  16.1km/h 93% 0in /  0.0mm 0 W/m2
05:31 41.2 °F /  5.1 °C 39.4 °F /  4.1 °C 29.5in /  999.7hPa West 2.9mph /  4.7km/h 7mph /  11.3km/h 93% 0in /  0.0mm 0 W/m2
05:36 41 °F /  5 °C 39.2 °F /  4 °C 29.5in /  1000.0hPa WNW 2mph /  3.2km/h 10mph /  16.1km/h 93% 0in /  0.0mm 0 W/m2
05:41 41 °F /  5 °C 39.2 °F /  4 °C 29.5in /  1000.0hPa WSW 4mph /  6.4km/h 6mph /  9.7km/h 93% 0in /  0.0mm 0 W/m2
05:46 41 °F /  5 °C 39.2 °F /  4 °C 29.5in /  1000.0hPa West 2.9mph /  4.7km/h 7mph /  11.3km/h 93% 0in /  0.0mm 0 W/m2
05:51 40.8 °F /  4.9 °C 39 °F /  3.9 °C 29.5in /  1000.0hPa WSW 4mph /  6.4km/h 10mph /  16.1km/h 93% 0in /  0.0mm 0 W/m2
05:56 41 °F /  5 °C 39.2 °F /  4 °C 29.5in /  1000.0hPa West 10.1mph /  16.3km/h 10mph /  16.1km/h 93% 0in /  0.0mm 0 W/m2
06:01 41 °F /  5 °C 38.8 °F /  3.8 °C 29.5in /  1000.0hPa SW 4.9mph /  7.9km/h 6mph /  9.7km/h 92% 0in /  0.0mm 0 W/m2
06:06 41 °F /  5 °C 39.2 °F /  4 °C 29.5in /  1000.0hPa West 10mph /  16.1km/h 10mph /  16.1km/h 93% 0in /  0.0mm 0 W/m2
06:11 41 °F /  5 °C 38.8 °F /  3.8 °C 29.5in /  1000.0hPa West 6mph /  9.7km/h 7mph /  11.3km/h 92% 0in /  0.0mm 0 W/m2
06:16 41 °F /  5 °C 38.8 °F /  3.8 °C 29.5in /  1000.0hPa North 4mph /  6.4km/h 8mph /  12.9km/h 92% 0in /  0.0mm 0 W/m2
06:21 41 °F /  5 °C 38.8 °F /  3.8 °C 29.5in /  1000.3hPa WNW 2.9mph /  4.7km/h 4mph /  6.4km/h 92% 0in /  0.0mm 0 W/m2
06:26 41 °F /  5 °C 38.8 °F /  3.8 °C 29.5in /  1000.3hPa WSW 6.9mph /  11.1km/h 10mph /  16.1km/h 92% 0in /  0.0mm 0 W/m2
06:31 40.8 °F /  4.9 °C 38.7 °F /  3.7 °C 29.5in /  1000.3hPa West 4mph /  6.4km/h 6mph /  9.7km/h 92% 0in /  0.0mm 0 W/m2
06:36 40.8 °F /  4.9 °C 38.7 °F /  3.7 °C 29.5in /  1000.3hPa NW 2.9mph /  4.7km/h 4mph /  6.4km/h 92% 0.01in /  0.2mm 0 W/m2
06:41 40.6 °F /  4.8 °C 38.8 °F /  3.8 °C 29.5in /  1000.3hPa West 2mph /  3.2km/h 7mph /  11.3km/h 93% 0.02in /  0.5mm 0 W/m2
06:46 40.3 °F /  4.6 °C 38.1 °F /  3.4 °C 29.5in /  1000.3hPa West 8.1mph /  13km/h 11mph /  17.7km/h 92% 0.02in /  0.5mm 0 W/m2
06:51 40.3 °F /  4.6 °C 38.1 °F /  3.4 °C 29.5in /  1000.3hPa West 2.9mph /  4.7km/h 8mph /  12.9km/h 92% 0.02in /  0.5mm 0 W/m2
06:56 40.3 °F /  4.6 °C 38.1 °F /  3.4 °C 29.5in /  1000.3hPa WNW 4mph /  6.4km/h 11mph /  17.7km/h 92% 0.02in /  0.5mm 0 W/m2
07:01 40.3 °F /  4.6 °C 38.1 °F /  3.4 °C 29.5in /  1000.3hPa West 6mph /  9.7km/h 8mph /  12.9km/h 92% 0.02in /  0.5mm 0 W/m2
07:11 40.3 °F /  4.6 °C 38.1 °F /  3.4 °C 29.5in /  1000.3hPa West 8.1mph /  13km/h 12mph /  19.3km/h 92% 0.02in /  0.5mm 0 W/m2
07:16 40.3 °F /  4.6 °C 38.1 °F /  3.4 °C 29.5in /  1000.3hPa WNW 4.9mph /  7.9km/h 9mph /  14.5km/h 92% 0.02in /  0.5mm 0 W/m2
07:21 40.3 °F /  4.6 °C 38.1 °F /  3.4 °C 29.5in /  1000.3hPa West 2.9mph /  4.7km/h 12mph /  19.3km/h 92% 0.02in /  0.5mm 0 W/m2
07:26 40.1 °F /  4.5 °C 37.9 °F /  3.3 °C 29.5in /  1000.3hPa West 4mph /  6.4km/h 7mph /  11.3km/h 92% 0.02in /  0.5mm 0 W/m2
07:32 39.9 °F /  4.4 °C 37.8 °F /  3.2 °C 29.5in /  1000.3hPa WSW 2mph /  3.2km/h 11mph /  17.7km/h 92% 0.02in /  0.5mm 0 W/m2
07:37 39.9 °F /  4.4 °C 37.8 °F /  3.2 °C 29.5in /  1000.3hPa WNW 2.9mph /  4.7km/h 12mph /  19.3km/h 92% 0.02in /  0.5mm 0 W/m2
07:42 39.9 °F /  4.4 °C 37.8 °F /  3.2 °C 29.5in /  1000.3hPa SW 8.1mph /  13km/h 9mph /  14.5km/h 92% 0.01in /  0.2mm 0 W/m2
07:47 39.7 °F /  4.3 °C 37.4 °F /  3 °C 29.6in /  1000.7hPa West 2.9mph /  4.7km/h 9mph /  14.5km/h 91% 0.01in /  0.2mm 0 W/m2
07:52 39.6 °F /  4.2 °C 37.2 °F /  2.9 °C 29.6in /  1000.7hPa West 8.9mph /  14.3km/h 11mph /  17.7km/h 91% 0.01in /  0.2mm 0 W/m2
07:57 39.6 °F /  4.2 °C 37.2 °F /  2.9 °C 29.6in /  1000.7hPa West 2.9mph /  4.7km/h 8mph /  12.9km/h 91% 0.01in /  0.2mm 0 W/m2
08:02 39.4 °F /  4.1 °C 37 °F /  2.8 °C 29.6in /  1000.7hPa West 8.9mph /  14.3km/h 10mph /  16.1km/h 91% 0.01in /  0.2mm 0 W/m2
08:07 39.4 °F /  4.1 °C 37 °F /  2.8 °C 29.6in /  1001.0hPa WSW 4.9mph /  7.9km/h 10mph /  16.1km/h 91% 0.01in /  0.2mm 0 W/m2
08:12 39.4 °F /  4.1 °C 37 °F /  2.8 °C 29.6in /  1001.0hPa West 4mph /  6.4km/h 16mph /  25.7km/h 91% 0.01in /  0.2mm 0 W/m2
08:17 39.4 °F /  4.1 °C 37 °F /  2.8 °C 29.6in /  1001.0hPa West 2.9mph /  4.7km/h 7mph /  11.3km/h 91% 0.01in /  0.2mm 0 W/m2
08:22 39.4 °F /  4.1 °C 36.7 °F /  2.6 °C 29.6in /  1001.0hPa West 2.9mph /  4.7km/h 10mph /  16.1km/h 90% 0.01in /  0.2mm 0 W/m2
08:27 39.4 °F /  4.1 °C 36.7 °F /  2.6 °C 29.6in /  1001.0hPa West 6mph /  9.7km/h 10mph /  16.1km/h 90% 0.01in /  0.2mm 5 W/m2
08:32 39.4 °F /  4.1 °C 36.7 °F /  2.6 °C 29.6in /  1001.0hPa NW 6mph /  9.7km/h 9mph /  14.5km/h 90% 0.01in /  0.2mm 7 W/m2
08:37 39.2 °F /  4 °C 36.5 °F /  2.5 °C 29.6in /  1001.4hPa West 6.9mph /  11.1km/h 11mph /  17.7km/h 90% 0.01in /  0.2mm 7 W/m2
08:42 39.2 °F /  4 °C 36.3 °F /  2.4 °C 29.6in /  1001.4hPa West 8.9mph /  14.3km/h 13mph /  20.9km/h 89% 0.01in /  0.2mm 11 W/m2
08:47 39.2 °F /  4 °C 36 °F /  2.2 °C 29.6in /  1001.4hPa WSW 14.1mph /  22.7km/h 16mph /  25.7km/h 88% 0in /  0.0mm 11 W/m2
08:52 39.2 °F /  4 °C 35.6 °F /  2 °C 29.6in /  1001.7hPa West 6.9mph /  11.1km/h 10mph /  16.1km/h 87% 0in /  0.0mm 14 W/m2
08:57 39 °F /  3.9 °C 35.4 °F /  1.9 °C 29.6in /  1001.7hPa West 8.9mph /  14.3km/h 14mph /  22.5km/h 87% 0in /  0.0mm 14 W/m2
09:02 39 °F /  3.9 °C 35.2 °F /  1.8 °C 29.6in /  1001.4hPa West 10.1mph /  16.3km/h 13mph /  20.9km/h 86% 0in /  0.0mm 18 W/m2
09:07 39 °F /  3.9 °C 35.2 °F /  1.8 °C 29.6in /  1001.7hPa WNW 4mph /  6.4km/h 13mph /  20.9km/h 86% 0in /  0.0mm 19 W/m2
09:12 39 °F /  3.9 °C 35.2 °F /  1.8 °C 29.6in /  1001.7hPa West 6.9mph /  11.1km/h 9mph /  14.5km/h 86% 0in /  0.0mm 19 W/m2
09:17 39 °F /  3.9 °C 35.4 °F /  1.9 °C 29.6in /  1001.7hPa West 6.9mph /  11.1km/h 10mph /  16.1km/h 87% 0in /  0.0mm 19 W/m2
09:22 38.8 °F /  3.8 °C 35.6 °F /  2 °C 29.6in /  1001.7hPa WSW 4mph /  6.4km/h 7mph /  11.3km/h 88% 0in /  0.0mm 16 W/m2
09:27 38.7 °F /  3.7 °C 35.4 °F /  1.9 °C 29.6in /  1001.7hPa West 4mph /  6.4km/h 8mph /  12.9km/h 88% 0in /  0.0mm 18 W/m2
09:32 38.7 °F /  3.7 °C 35.8 °F /  2.1 °C 29.6in /  1001.7hPa West 6.9mph /  11.1km/h 8mph /  12.9km/h 89% 0in /  0.0mm 16 W/m2
09:37 38.7 °F /  3.7 °C 35.8 °F /  2.1 °C 29.6in /  1002.0hPa West 10.1mph /  16.3km/h 14mph /  22.5km/h 89% 0in /  0.0mm 14 W/m2
09:42 38.7 °F /  3.7 °C 35.8 °F /  2.1 °C 29.6in /  1002.0hPa SW 6.9mph /  11.1km/h 15mph /  24.1km/h 89% 0in /  0.0mm 14 W/m2
09:47 38.5 °F /  3.6 °C 35.6 °F /  2 °C 29.6in /  1002.0hPa West 11mph /  17.7km/h 11mph /  17.7km/h 89% 0in /  0.0mm 16 W/m2
09:52 38.5 °F /  3.6 °C 35.2 °F /  1.8 °C 29.6in /  1002.0hPa WSW 10.1mph /  16.3km/h 15mph /  24.1km/h 88% 0in /  0.0mm 19 W/m2
09:57 38.5 °F /  3.6 °C 35.2 °F /  1.8 °C 29.6in /  1002.0hPa WNW 2.9mph /  4.7km/h 11mph /  17.7km/h 88% 0in /  0.0mm 19 W/m2
10:02 38.5 °F /  3.6 °C 35.2 °F /  1.8 °C 29.6in /  1002.0hPa West 6.9mph /  11.1km/h 14mph /  22.5km/h 88% 0in /  0.0mm 32 W/m2
10:07 38.5 °F /  3.6 °C 35.2 °F /  1.8 °C 29.6in /  1002.0hPa NW 4mph /  6.4km/h 12mph /  19.3km/h 88% 0in /  0.0mm 42 W/m2
10:12 38.5 °F /  3.6 °C 35.6 °F /  2 °C 29.6in /  1002.0hPa WSW 13mph /  20.9km/h 13mph /  20.9km/h 89% 0in /  0.0mm 40 W/m2
10:17 38.7 °F /  3.7 °C 35.4 °F /  1.9 °C 29.6in /  1002.0hPa WNW 8.1mph /  13km/h 11mph /  17.7km/h 88% 0in /  0.0mm 49 W/m2
10:22 38.5 °F /  3.6 °C 34.9 °F /  1.6 °C 29.6in /  1002.0hPa WNW 4mph /  6.4km/h 14mph /  22.5km/h 87% 0in /  0.0mm 44 W/m2
10:27 38.7 °F /  3.7 °C 35.1 °F /  1.7 °C 29.6in /  1002.4hPa WNW 11mph /  17.7km/h 13mph /  20.9km/h 87% 0in /  0.0mm 37 W/m2
10:32 38.5 °F /  3.6 °C 34.7 °F /  1.5 °C 29.6in /  1002.4hPa WNW 10.1mph /  16.3km/h 12mph /  19.3km/h 86% 0in /  0.0mm 33 W/m2
10:37 38.5 °F /  3.6 °C 34.7 °F /  1.5 °C 29.6in /  1002.4hPa North 4mph /  6.4km/h 14mph /  22.5km/h 86% 0in /  0.0mm 35 W/m2
10:42 38.7 °F /  3.7 °C 34.9 °F /  1.6 °C 29.6in /  1002.4hPa West 8.1mph /  13km/h 14mph /  22.5km/h 86% 0in /  0.0mm 46 W/m2
10:47 38.7 °F /  3.7 °C 34.9 °F /  1.6 °C 29.6in /  1002.4hPa NW 6mph /  9.7km/h 15mph /  24.1km/h 86% 0in /  0.0mm 100 W/m2
10:52 39 °F /  3.9 °C 35.2 °F /  1.8 °C 29.6in /  1002.7hPa West 12.1mph /  19.5km/h 12mph /  19.3km/h 86% 0in /  0.0mm 179 W/m2
10:57 39.4 °F /  4.1 °C 35.6 °F /  2 °C 29.6in /  1002.4hPa NNW 6mph /  9.7km/h 14mph /  22.5km/h 86% 0in /  0.0mm 211 W/m2
11:02 39.6 °F /  4.2 °C 35.8 °F /  2.1 °C 29.6in /  1002.7hPa WNW 4mph /  6.4km/h 12mph /  19.3km/h 86% 0in /  0.0mm 158 W/m2
11:07 39.6 °F /  4.2 °C 35.8 °F /  2.1 °C 29.6in /  1002.7hPa NNW 4mph /  6.4km/h 14mph /  22.5km/h 86% 0in /  0.0mm 144 W/m2
11:12 39.4 °F /  4.1 °C 35.6 °F /  2 °C 29.6in /  1002.7hPa NW 8.1mph /  13km/h 16mph /  25.7km/h 86% 0in /  0.0mm 118 W/m2
11:17 39 °F /  3.9 °C 35.2 °F /  1.8 °C 29.6in /  1002.7hPa WNW 8.9mph /  14.3km/h 12mph /  19.3km/h 86% 0in /  0.0mm 118 W/m2
11:22 38.8 °F /  3.8 °C 35.2 °F /  1.8 °C 29.6in /  1002.7hPa West 4mph /  6.4km/h 11mph /  17.7km/h 87% 0in /  0.0mm 135 W/m2
11:27 38.7 °F /  3.7 °C 35.4 °F /  1.9 °C 29.6in /  1002.7hPa WNW 8.1mph /  13km/h 10mph /  16.1km/h 88% 0in /  0.0mm 132 W/m2
11:32 38.7 °F /  3.7 °C 35.4 °F /  1.9 °C 29.6in /  1002.7hPa WNW 6mph /  9.7km/h 15mph /  24.1km/h 88% 0in /  0.0mm 120 W/m2
11:37 38.7 °F /  3.7 °C 35.4 °F /  1.9 °C 29.6in /  1002.7hPa WNW 8.1mph /  13km/h 9mph /  14.5km/h 88% 0in /  0.0mm 79 W/m2
11:42 38.7 °F /  3.7 °C 35.8 °F /  2.1 °C 29.6in /  1002.7hPa WSW 4.9mph /  7.9km/h 12mph /  19.3km/h 89% 0in /  0.0mm 97 W/m2
11:47 38.7 °F /  3.7 °C 35.4 °F /  1.9 °C 29.6in /  1002.7hPa WNW 2mph /  3.2km/h 9mph /  14.5km/h 88% 0in /  0.0mm 128 W/m2
11:52 38.7 °F /  3.7 °C 35.8 °F /  2.1 °C 29.6in /  1002.7hPa NW 2.9mph /  4.7km/h 8mph /  12.9km/h 89% 0in /  0.0mm 135 W/m2
11:57 38.7 °F /  3.7 °C 35.4 °F /  1.9 °C 29.6in /  1002.7hPa NW 0.9mph /  1.4km/h 8mph /  12.9km/h 88% 0in /  0.0mm 135 W/m2
12:02 38.7 °F /  3.7 °C 35.1 °F /  1.7 °C 29.6in /  1002.7hPa WSW 4mph /  6.4km/h 13mph /  20.9km/h 87% 0in /  0.0mm 104 W/m2
12:07 38.8 °F /  3.8 °C 35.2 °F /  1.8 °C 29.6in /  1002.7hPa NW 0.9mph /  1.4km/h 9mph /  14.5km/h 87% 0in /  0.0mm 63 W/m2
12:12 38.8 °F /  3.8 °C 35.6 °F /  2 °C 29.6in /  1002.7hPa WNW 2mph /  3.2km/h 6mph /  9.7km/h 88% 0in /  0.0mm 58 W/m2
12:17 38.8 °F /  3.8 °C 35.2 °F /  1.8 °C 29.6in /  1002.7hPa WNW 4.9mph /  7.9km/h 9mph /  14.5km/h 87% 0in /  0.0mm 65 W/m2
12:22 38.8 °F /  3.8 °C 35.2 °F /  1.8 °C 29.6in /  1002.7hPa West 8.9mph /  14.3km/h 11mph /  17.7km/h 87% 0in /  0.0mm 88 W/m2
12:27 38.7 °F /  3.7 °C 35.1 °F /  1.7 °C 29.6in /  1002.7hPa WNW 4mph /  6.4km/h 10mph /  16.1km/h 87% 0in /  0.0mm 88 W/m2
12:32 38.7 °F /  3.7 °C 34.9 °F /  1.6 °C 29.6in /  1002.7hPa West 8.9mph /  14.3km/h 13mph /  20.9km/h 86% 0in /  0.0mm 93 W/m2
12:37 38.5 °F /  3.6 °C 34.7 °F /  1.5 °C 29.6in /  1003.0hPa WNW 2.9mph /  4.7km/h 9mph /  14.5km/h 86% 0in /  0.0mm 79 W/m2
12:42 38.3 °F /  3.5 °C 34.5 °F /  1.4 °C 29.6in /  1003.0hPa West 2.9mph /  4.7km/h 13mph /  20.9km/h 86% 0in /  0.0mm 97 W/m2
12:47 38.3 °F /  3.5 °C 34.7 °F /  1.5 °C 29.6in /  1003.0hPa WNW 6.9mph /  11.1km/h 9mph /  14.5km/h 87% 0in /  0.0mm 98 W/m2
12:52 38.3 °F /  3.5 °C 34.7 °F /  1.5 °C 29.6in /  1003.0hPa WNW 6.9mph /  11.1km/h 8mph /  12.9km/h 87% 0in /  0.0mm 105 W/m2
12:57 38.5 °F /  3.6 °C 34.9 °F /  1.6 °C 29.6in /  1003.0hPa WNW 4.9mph /  7.9km/h 8mph /  12.9km/h 87% 0in /  0.0mm 127 W/m2
13:02 38.5 °F /  3.6 °C 34.9 °F /  1.6 °C 29.6in /  1003.0hPa West 6.9mph /  11.1km/h 10mph /  16.1km/h 87% 0in /  0.0mm 107 W/m2
13:07 38.3 °F /  3.5 °C 34.7 °F /  1.5 °C 29.6in /  1003.0hPa WSW 6.9mph /  11.1km/h 11mph /  17.7km/h 87% 0in /  0.0mm 109 W/m2
13:12 38.1 °F /  3.4 °C 34.5 °F /  1.4 °C 29.6in /  1003.0hPa WNW 2.9mph /  4.7km/h 7mph /  11.3km/h 87% 0in /  0.0mm 77 W/m2
13:17 38.3 °F /  3.5 °C 34.7 °F /  1.5 °C 29.6in /  1003.4hPa West 4mph /  6.4km/h 7mph /  11.3km/h 87% 0in /  0.0mm 97 W/m2
13:22 38.5 °F /  3.6 °C 34.9 °F /  1.6 °C 29.6in /  1003.4hPa West 6.9mph /  11.1km/h 7mph /  11.3km/h 87% 0in /  0.0mm 79 W/m2
13:27 38.5 °F /  3.6 °C 34.3 °F /  1.3 °C 29.6in /  1003.4hPa West 6mph /  9.7km/h 9mph /  14.5km/h 85% 0in /  0.0mm 54 W/m2
13:32 38.5 °F /  3.6 °C 34.3 °F /  1.3 °C 29.6in /  1003.4hPa West 2.9mph /  4.7km/h 7mph /  11.3km/h 85% 0in /  0.0mm 58 W/m2
13:37 38.5 °F /  3.6 °C 34.2 °F /  1.2 °C 29.6in /  1003.4hPa West 2.9mph /  4.7km/h 11mph /  17.7km/h 84% 0in /  0.0mm 54 W/m2
13:42 38.5 °F /  3.6 °C 33.8 °F /  1 °C 29.6in /  1003.4hPa WNW 4mph /  6.4km/h 7mph /  11.3km/h 83% 0in /  0.0mm 86 W/m2
13:47 38.5 °F /  3.6 °C 33.8 °F /  1 °C 29.6in /  1003.4hPa NNW 8.1mph /  13km/h 14mph /  22.5km/h 83% 0in /  0.0mm 114 W/m2
13:52 38.7 °F /  3.7 °C 33.3 °F /  0.7 °C 29.6in /  1003.4hPa WNW 6.9mph /  11.1km/h 9mph /  14.5km/h 81% 0in /  0.0mm 134 W/m2
13:57 38.7 °F /  3.7 °C 34 °F /  1.1 °C 29.6in /  1003.4hPa West 2.9mph /  4.7km/h 9mph /  14.5km/h 83% 0in /  0.0mm 90 W/m2
14:02 38.7 °F /  3.7 °C 33.3 °F /  0.7 °C 29.6in /  1003.4hPa West 6.9mph /  11.1km/h 15mph /  24.1km/h 81% 0in /  0.0mm 69 W/m2
14:07 38.7 °F /  3.7 °C 33.6 °F /  0.9 °C 29.6in /  1003.4hPa WNW 4mph /  6.4km/h 8mph /  12.9km/h 82% 0in /  0.0mm 120 W/m2
14:12 38.5 °F /  3.6 °C 33.8 °F /  1 °C 29.6in /  1003.4hPa WSW 8.1mph /  13km/h 13mph /  20.9km/h 83% 0in /  0.0mm 139 W/m2
14:17 38.5 °F /  3.6 °C 33.8 °F /  1 °C 29.6in /  1003.4hPa NW 4.9mph /  7.9km/h 11mph /  17.7km/h 83% 0in /  0.0mm 142 W/m2
14:22 38.5 °F /  3.6 °C 33.8 °F /  1 °C 29.6in /  1003.7hPa NW 4mph /  6.4km/h 11mph /  17.7km/h 83% 0in /  0.0mm 104 W/m2
14:27 38.3 °F /  3.5 °C 33.6 °F /  0.9 °C 29.6in /  1003.7hPa West 8.1mph /  13km/h 10mph /  16.1km/h 83% 0in /  0.0mm 46 W/m2
14:32 38.3 °F /  3.5 °C 33.6 °F /  0.9 °C 29.6in /  1003.7hPa WNW 4.9mph /  7.9km/h 7mph /  11.3km/h 83% 0in /  0.0mm 74 W/m2
14:37 38.3 °F /  3.5 °C 33.6 °F /  0.9 °C 29.6in /  1003.7hPa WSW 2.9mph /  4.7km/h 9mph /  14.5km/h 83% 0in /  0.0mm 67 W/m2
14:42 38.3 °F /  3.5 °C 33.3 °F /  0.7 °C 29.6in /  1003.7hPa West 4mph /  6.4km/h 10mph /  16.1km/h 82% 0in /  0.0mm 46 W/m2
14:47 38.3 °F /  3.5 °C 33.3 °F /  0.7 °C 29.6in /  1003.7hPa WSW 6.9mph /  11.1km/h 13mph /  20.9km/h 82% 0in /  0.0mm 49 W/m2
14:52 38.3 °F /  3.5 °C 32.9 °F /  0.5 °C 29.7in /  1004.1hPa WNW 2.9mph /  4.7km/h 12mph /  19.3km/h 81% 0in /  0.0mm 32 W/m2
14:57 38.3 °F /  3.5 °C 33.3 °F /  0.7 °C 29.7in /  1004.1hPa WNW 4mph /  6.4km/h 13mph /  20.9km/h 82% 0in /  0.0mm 21 W/m2
15:02 38.1 °F /  3.4 °C 33.1 °F /  0.6 °C 29.7in /  1004.1hPa West 8.1mph /  13km/h 13mph /  20.9km/h 82% 0in /  0.0mm 39 W/m2
15:07 38.3 °F /  3.5 °C 33.3 °F /  0.7 °C 29.7in /  1004.1hPa WNW 6.9mph /  11.1km/h 12mph /  19.3km/h 82% 0in /  0.0mm 37 W/m2
15:12 38.1 °F /  3.4 °C 33.1 °F /  0.6 °C 29.7in /  1004.1hPa West 8.9mph /  14.3km/h 13mph /  20.9km/h 82% 0in /  0.0mm 23 W/m2
15:17 38.1 °F /  3.4 °C 33.4 °F /  0.8 °C 29.7in /  1004.1hPa WNW 6.9mph /  11.1km/h 10mph /  16.1km/h 83% 0in /  0.0mm 21 W/m2
15:22 38.1 °F /  3.4 °C 33.4 °F /  0.8 °C 29.7in /  1004.1hPa WNW 4mph /  6.4km/h 12mph /  19.3km/h 83% 0in /  0.0mm 37 W/m2
15:27 38.1 °F /  3.4 °C 33.4 °F /  0.8 °C 29.7in /  1004.4hPa WSW 6.9mph /  11.1km/h 10mph /  16.1km/h 83% 0in /  0.0mm 28 W/m2
15:32 38.1 °F /  3.4 °C 33.4 °F /  0.8 °C 29.7in /  1004.4hPa West 4mph /  6.4km/h 9mph /  14.5km/h 83% 0in /  0.0mm 21 W/m2
15:37 38.1 °F /  3.4 °C 33.4 °F /  0.8 °C 29.7in /  1004.4hPa NNW 6mph /  9.7km/h 8mph /  12.9km/h 83% 0in /  0.0mm 18 W/m2
15:42 38.1 °F /  3.4 °C 33.4 °F /  0.8 °C 29.7in /  1004.4hPa WNW 2.9mph /  4.7km/h 4mph /  6.4km/h 83% 0in /  0.0mm 30 W/m2
15:47 38.1 °F /  3.4 °C 33.4 °F /  0.8 °C 29.7in /  1004.4hPa West 6mph /  9.7km/h 10mph /  16.1km/h 83% 0in /  0.0mm 35 W/m2
15:52 38.1 °F /  3.4 °C 33.4 °F /  0.8 °C 29.7in /  1004.7hPa SW 2mph /  3.2km/h 7mph /  11.3km/h 83% 0in /  0.0mm 33 W/m2
15:57 38.1 °F /  3.4 °C 33.8 °F /  1 °C 29.7in /  1004.7hPa WNW 2.9mph /  4.7km/h 14mph /  22.5km/h 84% 0in /  0.0mm 21 W/m2
16:02 38.1 °F /  3.4 °C 33.8 °F /  1 °C 29.7in /  1004.7hPa WSW 6mph /  9.7km/h 6mph /  9.7km/h 84% 0in /  0.0mm 19 W/m2
16:07 38.1 °F /  3.4 °C 33.8 °F /  1 °C 29.7in /  1004.7hPa West 14mph /  22.5km/h 14mph /  22.5km/h 84% 0in /  0.0mm 18 W/m2
16:12 38.1 °F /  3.4 °C 33.8 °F /  1 °C 29.7in /  1004.7hPa NW 4mph /  6.4km/h 9mph /  14.5km/h 84% 0in /  0.0mm 14 W/m2
16:17 38.1 °F /  3.4 °C 33.8 °F /  1 °C 29.7in /  1005.1hPa West 6.9mph /  11.1km/h 10mph /  16.1km/h 84% 0in /  0.0mm 21 W/m2
16:22 38.1 °F /  3.4 °C 33.8 °F /  1 °C 29.7in /  1004.7hPa West 6mph /  9.7km/h 10mph /  16.1km/h 84% 0in /  0.0mm 11 W/m2
16:27 37.9 °F /  3.3 °C 33.6 °F /  0.9 °C 29.7in /  1004.7hPa WNW 6.9mph /  11.1km/h 10mph /  16.1km/h 84% 0in /  0.0mm 5 W/m2
16:32 37.9 °F /  3.3 °C 33.8 °F /  1 °C 29.7in /  1005.1hPa West 6mph /  9.7km/h 11mph /  17.7km/h 85% 0in /  0.0mm 5 W/m2
16:37 37.8 °F /  3.2 °C 33.6 °F /  0.9 °C 29.7in /  1005.1hPa NW 2.9mph /  4.7km/h 11mph /  17.7km/h 85% 0in /  0.0mm 0 W/m2
16:42 37.8 °F /  3.2 °C 33.6 °F /  0.9 °C 29.7in /  1005.1hPa West 2.9mph /  4.7km/h 8mph /  12.9km/h 85% 0in /  0.0mm 0 W/m2
16:47 37.8 °F /  3.2 °C 33.6 °F /  0.9 °C 29.7in /  1005.4hPa West 6.9mph /  11.1km/h 15mph /  24.1km/h 85% 0in /  0.0mm 0 W/m2
16:52 37.9 °F /  3.3 °C 33.8 °F /  1 °C 29.7in /  1005.4hPa West 8.9mph /  14.3km/h 9mph /  14.5km/h 85% 0in /  0.0mm 0 W/m2
16:57 37.9 °F /  3.3 °C 33.8 °F /  1 °C 29.7in /  1005.4hPa WSW 4.9mph /  7.9km/h 8mph /  12.9km/h 85% 0in /  0.0mm 0 W/m2
17:02 37.9 °F /  3.3 °C 33.8 °F /  1 °C 29.7in /  1005.8hPa NW 4mph /  6.4km/h 11mph /  17.7km/h 85% 0in /  0.0mm 0 W/m2
17:07 37.9 °F /  3.3 °C 33.8 °F /  1 °C 29.7in /  1005.8hPa WNW 2mph /  3.2km/h 5mph /  8km/h 85% 0in /  0.0mm 0 W/m2
17:12 37.9 °F /  3.3 °C 33.8 °F /  1 °C 29.7in /  1005.8hPa West 6mph /  9.7km/h 6mph /  9.7km/h 85% 0in /  0.0mm 0 W/m2
17:17 37.8 °F /  3.2 °C 34 °F /  1.1 °C 29.7in /  1006.1hPa West 2.9mph /  4.7km/h 6mph /  9.7km/h 86% 0in /  0.0mm 0 W/m2
17:22 37.8 °F /  3.2 °C 34 °F /  1.1 °C 29.7in /  1006.1hPa WNW 4mph /  6.4km/h 9mph /  14.5km/h 86% 0in /  0.0mm 0 W/m2
17:27 37.8 °F /  3.2 °C 34 °F /  1.1 °C 29.7in /  1006.1hPa NW 2mph /  3.2km/h 5mph /  8km/h 86% 0in /  0.0mm 0 W/m2
17:32 37.8 °F /  3.2 °C 34 °F /  1.1 °C 29.7in /  1006.4hPa WNW 0.9mph /  1.4km/h 8mph /  12.9km/h 86% 0in /  0.0mm 0 W/m2
17:37 37.8 °F /  3.2 °C 34.2 °F /  1.2 °C 29.7in /  1006.4hPa WSW 4mph /  6.4km/h 4mph /  6.4km/h 87% 0in /  0.0mm 0 W/m2
17:42 37.6 °F /  3.1 °C 34 °F /  1.1 °C 29.7in /  1006.4hPa West 6mph /  9.7km/h 9mph /  14.5km/h 87% 0in /  0.0mm 0 W/m2
17:47 37.6 °F /  3.1 °C 34 °F /  1.1 °C 29.7in /  1006.8hPa West 4mph /  6.4km/h 4mph /  6.4km/h 87% 0in /  0.0mm 0 W/m2
17:52 37.4 °F /  3 °C 34.2 °F /  1.2 °C 29.7in /  1006.8hPa West 2.9mph /  4.7km/h 9mph /  14.5km/h 88% 0in /  0.0mm 0 W/m2
17:57 37.2 °F /  2.9 °C 34 °F /  1.1 °C 29.7in /  1006.8hPa NW 4mph /  6.4km/h 7mph /  11.3km/h 88% 0in /  0.0mm 0 W/m2
18:02 37.2 °F /  2.9 °C 34 °F /  1.1 °C 29.7in /  1006.8hPa West 2.9mph /  4.7km/h 5mph /  8km/h 88% 0in /  0.0mm 0 W/m2
18:07 37.2 °F /  2.9 °C 34.3 °F /  1.3 °C 29.7in /  1007.1hPa Calm   3mph /  4.8km/h 89% 0in /  0.0mm 0 W/m2
18:13 37 °F /  2.8 °C 34.2 °F /  1.2 °C 29.7in /  1007.1hPa WSW 2mph /  3.2km/h 3mph /  4.8km/h 89% 0in /  0.0mm 0 W/m2
18:18 37 °F /  2.8 °C 34.2 °F /  1.2 °C 29.8in /  1007.5hPa WNW 2.9mph /  4.7km/h 3mph /  4.8km/h 89% 0in /  0.0mm 0 W/m2
18:23 37 °F /  2.8 °C 34.2 °F /  1.2 °C 29.7in /  1007.1hPa WSW 0.9mph /  1.4km/h 4mph /  6.4km/h 89% 0in /  0.0mm 0 W/m2
18:28 36.9 °F /  2.7 °C 33.6 °F /  0.9 °C 29.8in /  1007.5hPa WNW 2.9mph /  4.7km/h 6mph /  9.7km/h 88% 0in /  0.0mm 0 W/m2
18:33 36.7 °F /  2.6 °C 33.4 °F /  0.8 °C 29.8in /  1007.5hPa West 2mph /  3.2km/h 6mph /  9.7km/h 88% 0in /  0.0mm 0 W/m2
18:38 36.5 °F /  2.5 °C 33.1 °F /  0.6 °C 29.8in /  1007.5hPa West 6mph /  9.7km/h 7mph /  11.3km/h 87% 0in /  0.0mm 0 W/m2
18:43 36.3 °F /  2.4 °C 32.9 °F /  0.5 °C 29.8in /  1007.5hPa West 4mph /  6.4km/h 8mph /  12.9km/h 87% 0in /  0.0mm 0 W/m2
18:48 36.3 °F /  2.4 °C 32.9 °F /  0.5 °C 29.8in /  1007.5hPa WSW 2mph /  3.2km/h 7mph /  11.3km/h 87% 0in /  0.0mm 0 W/m2
18:53 36.1 °F /  2.3 °C 32.9 °F /  0.5 °C 29.8in /  1007.8hPa WNW 4mph /  6.4km/h 4mph /  6.4km/h 88% 0in /  0.0mm 0 W/m2
Juneau County Weather
Compliments of Weather Underground - 2 mb